YFC85 WSSL-WSSL

Flight info

Callsign YFC85
Flight time 0h 26m
Altitude 7000
Route LATA/CIRCUITS
Aircraft DA40/L-V/N

Departure

Time 2026-05-05 14:02
Airport Seletar Airport (WSSL)

Arrival

Time 2026-05-05 14:28
Airport Seletar Airport (WSSL)
Time Latitude Longitude Altitude Speed Heading
2026-05-05 13:49 1.41446 103.86384 49 ft 0 kts 149°
2026-05-05 13:53 1.41423 103.86400 49 ft 2 kts 107°
2026-05-05 13:53 1.41461 103.86433 49 ft 11 kts 50°
2026-05-05 13:53 1.41522 103.86483 49 ft 3 kts 16°
2026-05-05 13:54 1.41526 103.86482 49 ft 0 kts 345°
2026-05-05 13:58 1.41533 103.86483 49 ft 2 kts 36°
2026-05-05 13:58 1.41554 103.86503 49 ft 7 kts 30°
2026-05-05 13:58 1.41562 103.86526 49 ft 6 kts 123°
2026-05-05 13:58 1.41546 103.86552 49 ft 0 kts 124°
2026-05-05 13:59 1.41545 103.86553 49 ft 1 kts 124°
2026-05-05 14:00 1.41371 103.86551 49 ft 27 kts 221°
2026-05-05 14:00 1.41305 103.86512 49 ft 4 kts 36°
2026-05-05 14:00 1.41322 103.86521 49 ft 1 kts 32°
2026-05-05 14:00 1.41327 103.86525 49 ft 5 kts 34°
2026-05-05 14:01 1.41441 103.86599 50 ft 45 kts 33°
2026-05-05 14:01 1.41822 103.86847 83 ft 79 kts 32°
2026-05-05 14:01 1.42302 103.87163 259 ft 82 kts 35°
2026-05-05 14:01 1.42778 103.87513 437 ft 87 kts 38°
2026-05-05 14:02 1.43266 103.87823 648 ft 87 kts 14°
2026-05-05 14:02 1.43836 103.87675 840 ft 87 kts 318°
2026-05-05 14:02 1.44000 103.87100 994 ft 90 kts 257°
2026-05-05 14:02 1.43693 103.86574 1199 ft 89 kts 224°
2026-05-05 14:03 1.43240 103.86178 1439 ft 84 kts 217°
2026-05-05 14:03 1.42767 103.85829 1627 ft 86 kts 212°
2026-05-05 14:03 1.42270 103.85484 1770 ft 90 kts 213°
2026-05-05 14:03 1.41712 103.85069 1547 ft 101 kts 217°
2026-05-05 14:04 1.41243 103.84606 1496 ft 95 kts 231°
2026-05-05 14:04 1.40874 103.84073 1548 ft 94 kts 233°
2026-05-05 14:04 1.40464 103.83559 1580 ft 96 kts 226°
2026-05-05 14:04 1.39988 103.83076 1587 ft 100 kts 221°
2026-05-05 14:05 1.39443 103.82642 1620 ft 98 kts 206°
2026-05-05 14:05 1.38789 103.82369 1593 ft 103 kts 200°
2026-05-05 14:05 1.38111 103.82115 1614 ft 103 kts 199°
2026-05-05 14:05 1.37524 103.81797 1875 ft 93 kts 226°
2026-05-05 14:06 1.37275 103.81221 2075 ft 95 kts 265°
2026-05-05 14:06 1.37364 103.80560 2273 ft 97 kts 275°
2026-05-05 14:06 1.37495 103.79916 2456 ft 95 kts 290°
2026-05-05 14:06 1.37949 103.79465 2666 ft 92 kts 341°
2026-05-05 14:07 1.38578 103.79430 2847 ft 92 kts
2026-05-05 14:07 1.39206 103.79469 3056 ft 89 kts
2026-05-05 14:07 1.39828 103.79496 3240 ft 88 kts
2026-05-05 14:07 1.40411 103.79371 3393 ft 89 kts 321°
2026-05-05 14:08 1.40699 103.78870 3561 ft 89 kts 290°
2026-05-05 14:08 1.40927 103.78306 3740 ft 87 kts 289°
2026-05-05 14:08 1.41133 103.77742 3766 ft 88 kts 289°
2026-05-05 14:08 1.40959 103.77257 3746 ft 81 kts 195°
2026-05-05 14:09 1.40384 103.77349 3803 ft 87 kts 163°
2026-05-05 14:09 1.39811 103.77538 3971 ft 86 kts 159°
2026-05-05 14:09 1.39240 103.77762 4061 ft 93 kts 158°
2026-05-05 14:09 1.38639 103.78008 4079 ft 95 kts 156°
2026-05-05 14:10 1.38012 103.78262 4093 ft 97 kts 158°
2026-05-05 14:10 1.37368 103.78482 4105 ft 100 kts 173°
2026-05-05 14:10 1.36660 103.78535 4070 ft 105 kts 175°
2026-05-05 14:10 1.36160 103.78985 4065 ft 105 kts 94°
2026-05-05 14:11 1.36557 103.79547 4038 ft 109 kts 15°
2026-05-05 14:11 1.37300 103.79384 3997 ft 111 kts 332°
2026-05-05 14:11 1.37924 103.78894 3892 ft 119 kts 320°
2026-05-05 14:11 1.38605 103.78550 3766 ft 108 kts 19°
2026-05-05 14:12 1.38823 103.79132 3814 ft 98 kts 114°
2026-05-05 14:12 1.38479 103.79706 3746 ft 91 kts 123°
2026-05-05 14:12 1.38462 103.80296 3781 ft 83 kts 54°
2026-05-05 14:12 1.38985 103.80379 3864 ft 78 kts 310°
2026-05-05 14:13 1.39239 103.79825 3841 ft 100 kts 290°
2026-05-05 14:13 1.39126 103.79286 3828 ft 96 kts 183°
2026-05-05 14:13 1.38801 103.79825 3745 ft 117 kts 88°
2026-05-05 14:13 1.38854 103.80702 3599 ft 131 kts 87°
2026-05-05 14:14 1.38923 103.81649 3442 ft 138 kts 87°
2026-05-05 14:14 1.38982 103.82581 3321 ft 137 kts 85°
2026-05-05 14:14 1.39143 103.83496 2996 ft 127 kts 85°
2026-05-05 14:14 1.39228 103.84303 2777 ft 109 kts 85°
2026-05-05 14:15 1.39373 103.85033 2460 ft 108 kts 71°
2026-05-05 14:15 1.39741 103.85700 2133 ft 107 kts 51°
2026-05-05 14:15 1.40286 103.86142 1997 ft 96 kts 36°
2026-05-05 14:15 1.40809 103.86514 1904 ft 90 kts 36°
2026-05-05 14:16 1.41313 103.86854 1724 ft 87 kts 34°
2026-05-05 14:16 1.41748 103.87260 1539 ft 87 kts 21°
2026-05-05 14:16 1.42291 103.87515 1346 ft 85 kts 28°
2026-05-05 14:16 1.42833 103.87730 1138 ft 87 kts 355°
2026-05-05 14:17 1.43261 103.87352 1000 ft 88 kts 306°
2026-05-05 14:17 1.43600 103.86820 1058 ft 95 kts 290°
2026-05-05 14:17 1.43383 103.86212 1021 ft 100 kts 224°
2026-05-05 14:17 1.42863 103.85782 1005 ft 94 kts 214°
2026-05-05 14:18 1.42296 103.85432 944 ft 98 kts 211°
2026-05-05 14:18 1.41736 103.85079 1031 ft 94 kts 211°
2026-05-05 14:18 1.41235 103.84775 952 ft 83 kts 210°
2026-05-05 14:18 1.40722 103.84583 803 ft 79 kts 158°
2026-05-05 14:19 1.40387 103.85003 626 ft 80 kts 121°
2026-05-05 14:19 1.40104 103.85480 467 ft 78 kts 115°
2026-05-05 14:19 1.40328 103.85896 297 ft 78 kts 24°
2026-05-05 14:19 1.40841 103.86134 338 ft 83 kts 24°
2026-05-05 14:20 1.41373 103.86396 514 ft 88 kts 27°
2026-05-05 14:20 1.41908 103.86713 706 ft 89 kts 33°
2026-05-05 14:20 1.42441 103.87047 884 ft 92 kts 29°
2026-05-05 14:20 1.43047 103.87029 1077 ft 93 kts 329°
2026-05-05 14:21 1.43472 103.86535 1065 ft 97 kts 297°
2026-05-05 14:21 1.43254 103.85967 1063 ft 96 kts 213°
2026-05-05 14:21 1.42678 103.85581 1039 ft 100 kts 213°
2026-05-05 14:21 1.42094 103.85193 1041 ft 99 kts 212°
2026-05-05 14:22 1.41525 103.84829 1043 ft 96 kts 211°
2026-05-05 14:22 1.41002 103.84511 944 ft 84 kts 210°
2026-05-05 14:22 1.40485 103.84303 782 ft 82 kts 167°
2026-05-05 14:22 1.40140 103.84708 630 ft 78 kts 118°
2026-05-05 14:23 1.39882 103.85182 508 ft 79 kts 117°
2026-05-05 14:23 1.39961 103.85646 426 ft 75 kts 32°
2026-05-05 14:23 1.40413 103.85922 248 ft 76 kts 34°
2026-05-05 14:23 1.40857 103.86217 58 ft 75 kts 35°
2026-05-05 14:24 1.41221 103.86455 49 ft 60 kts 33°
2026-05-05 14:24 1.41634 103.86722 176 ft 74 kts 39°
2026-05-05 14:24 1.42052 103.87020 373 ft 74 kts 32°
2026-05-05 14:24 1.42501 103.87323 555 ft 80 kts 32°
2026-05-05 14:25 1.43032 103.87356 767 ft 80 kts 337°
2026-05-05 14:25 1.43434 103.86950 945 ft 84 kts 294°
2026-05-05 14:25 1.43511 103.86391 1136 ft 84 kts 251°
2026-05-05 14:25 1.43184 103.85914 1344 ft 84 kts 225°
2026-05-05 14:26 1.42741 103.85512 1524 ft 87 kts 218°
2026-05-05 14:26 1.42289 103.85150 1554 ft 83 kts 216°
2026-05-05 14:26 1.41830 103.84824 1501 ft 81 kts 214°
2026-05-05 14:26 1.41370 103.84513 1338 ft 80 kts 211°
2026-05-05 14:27 1.40876 103.84274 1154 ft 79 kts 184°
2026-05-05 14:27 1.40363 103.84464 958 ft 79 kts 140°
2026-05-05 14:27 1.40003 103.84873 790 ft 78 kts 123°
2026-05-05 14:27 1.39987 103.85398 582 ft 80 kts 65°
2026-05-05 14:28 1.40326 103.85833 363 ft 81 kts 43°
2026-05-05 14:28 1.40760 103.86153 112 ft 76 kts 35°
2026-05-05 14:28 1.41141 103.86404 48 ft 52 kts 33°
2026-05-05 14:28 1.41393 103.86567 49 ft 36 kts 33°
2026-05-05 14:29 1.41520 103.86590 50 ft 16 kts 306°
2026-05-05 14:29 1.41567 103.86518 49 ft 10 kts 295°
2026-05-05 14:29 1.41548 103.86474 49 ft 11 kts 212°
2026-05-05 14:29 1.41477 103.86421 49 ft 8 kts 266°
2026-05-05 14:30 1.41462 103.86376 49 ft 7 kts 239°
2026-05-05 14:30 1.41442 103.86354 49 ft 4 kts 174°
2026-05-05 14:30 1.41433 103.86359 49 ft 1 kts 150°
2026-05-05 14:30 1.41431 103.86360 49 ft 0 kts 149°
2026-05-05 14:53 1.41418 103.86368 49 ft 9 kts 147°
2026-05-05 14:53 1.41413 103.86400 49 ft 9 kts 35°
2026-05-05 14:53 1.41477 103.86453 49 ft 8 kts 45°
2026-05-05 14:54 1.41506 103.86471 49 ft 4 kts 36°
2026-05-05 14:54 1.41519 103.86481 49 ft 0 kts 33°
2026-05-05 14:56 1.41527 103.86486 49 ft 7 kts 32°
2026-05-05 14:56 1.41590 103.86511 49 ft 10 kts
2026-05-05 14:56 1.41661 103.86554 49 ft 15 kts 32°
2026-05-05 14:57 1.41737 103.86603 49 ft 10 kts 31°
2026-05-05 14:57 1.41800 103.86652 49 ft 11 kts 74°
2026-05-05 14:57 1.41776 103.86702 48 ft 4 kts 123°
2026-05-05 14:57 1.41776 103.86703 48 ft 0 kts 124°
2026-05-05 14:58 1.41753 103.86738 48 ft 20 kts 121°
2026-05-05 14:58 1.41656 103.86884 48 ft 15 kts 122°
2026-05-05 14:58 1.41653 103.86890 48 ft 0 kts 123°
2026-05-05 14:59 1.41629 103.86906 48 ft 11 kts 180°
2026-05-05 14:59 1.41535 103.86849 48 ft 18 kts 213°
2026-05-05 15:00 1.41462 103.86802 48 ft 13 kts 212°
2026-05-05 15:00 1.41422 103.86792 49 ft 7 kts 130°
2026-05-05 15:00 1.41366 103.86870 49 ft 3 kts 179°
2026-05-05 15:00 1.41351 103.86860 49 ft 0 kts 217°
2026-05-05 15:15 1.41344 103.86842 49 ft 6 kts 303°
2026-05-05 15:16 1.41389 103.86773 49 ft 10 kts 304°
2026-05-05 15:16 1.41442 103.86789 49 ft 9 kts 33°
2026-05-05 15:16 1.41459 103.86800 48 ft 0 kts 32°
2026-05-05 15:17 1.41489 103.86820 48 ft 15 kts 32°
2026-05-05 15:17 1.41606 103.86896 48 ft 16 kts 33°
2026-05-05 15:17 1.41668 103.86867 48 ft 5 kts 303°
2026-05-05 15:18 1.41696 103.86824 48 ft 16 kts 303°
2026-05-05 15:18 1.41770 103.86713 48 ft 19 kts 303°
2026-05-05 15:18 1.41799 103.86664 49 ft 9 kts 284°
2026-05-05 15:18 1.41736 103.86602 49 ft 18 kts 218°
2026-05-05 15:19 1.41637 103.86539 49 ft 16 kts 208°
2026-05-05 15:19 1.41536 103.86466 49 ft 20 kts 213°
2026-05-05 15:19 1.41479 103.86408 49 ft 3 kts 263°
2026-05-05 15:19 1.41468 103.86402 49 ft 2 kts 146°
2026-05-05 15:20 1.41457 103.86408 49 ft 0 kts 149°